sensor_id;sensor_type;location;lat;lon;timestamp;temperature;humidity
11846;DHT22;5982;37.494;-8.758;2023-04-06T19:06:25;17.90;99.90
11846;DHT22;5982;37.494;-8.758;2023-04-06T19:08:53;17.80;99.90
11846;DHT22;5982;37.494;-8.758;2023-04-06T19:11:21;18.00;99.90
11846;DHT22;5982;37.494;-8.758;2023-04-06T19:13:49;18.00;99.90
11846;DHT22;5982;37.494;-8.758;2023-04-06T19:16:17;17.90;99.90
11846;DHT22;5982;37.494;-8.758;2023-04-06T19:18:45;17.80;99.90
11846;DHT22;5982;37.494;-8.758;2023-04-06T19:21:16;17.60;99.90
11846;DHT22;5982;37.494;-8.758;2023-04-06T19:23:46;17.50;99.90
11846;DHT22;5982;37.494;-8.758;2023-04-06T19:26:15;17.20;99.90
11846;DHT22;5982;37.494;-8.758;2023-04-06T19:28:44;17.00;99.90
11846;DHT22;5982;37.494;-8.758;2023-04-06T19:31:13;16.90;99.90
11846;DHT22;5982;37.494;-8.758;2023-04-06T19:33:42;16.80;99.90
11846;DHT22;5982;37.494;-8.758;2023-04-06T19:36:10;16.70;99.90
11846;DHT22;5982;37.494;-8.758;2023-04-06T19:38:38;16.60;99.90
11846;DHT22;5982;37.494;-8.758;2023-04-06T19:41:07;16.50;99.90
11846;DHT22;5982;37.494;-8.758;2023-04-06T19:43:35;16.30;99.90
11846;DHT22;5982;37.494;-8.758;2023-04-06T19:46:03;16.20;99.90
11846;DHT22;5982;37.494;-8.758;2023-04-06T19:48:30;16.00;99.90
11846;DHT22;5982;37.494;-8.758;2023-04-06T19:50:59;15.90;99.90
11846;DHT22;5982;37.494;-8.758;2023-04-06T19:53:26;15.70;99.90
11846;DHT22;5982;37.494;-8.758;2023-04-06T19:55:54;15.50;99.90
11846;DHT22;5982;37.494;-8.758;2023-04-06T19:58:24;15.50;99.90
11846;DHT22;5982;37.494;-8.758;2023-04-06T20:00:51;15.50;99.90
11846;DHT22;5982;37.494;-8.758;2023-04-06T20:03:19;15.40;99.90
11846;DHT22;5982;37.494;-8.758;2023-04-06T20:05:47;15.40;99.90
11846;DHT22;5982;37.494;-8.758;2023-04-06T20:08:15;15.30;99.90
11846;DHT22;5982;37.494;-8.758;2023-04-06T20:10:43;15.30;99.90
11846;DHT22;5982;37.494;-8.758;2023-04-06T20:13:10;15.10;99.90
11846;DHT22;5982;37.494;-8.758;2023-04-06T20:15:41;15.00;99.90
11846;DHT22;5982;37.494;-8.758;2023-04-06T20:18:09;15.00;99.90
11846;DHT22;5982;37.494;-8.758;2023-04-06T20:20:37;14.90;99.90
11846;DHT22;5982;37.494;-8.758;2023-04-06T20:23:05;14.80;99.90
11846;DHT22;5982;37.494;-8.758;2023-04-06T20:25:32;14.70;99.90
11846;DHT22;5982;37.494;-8.758;2023-04-06T20:28:00;14.70;99.90
11846;DHT22;5982;37.494;-8.758;2023-04-06T20:30:28;14.50;99.90
11846;DHT22;5982;37.494;-8.758;2023-04-06T20:32:57;14.40;99.90
11846;DHT22;5982;37.494;-8.758;2023-04-06T20:35:25;14.40;99.90
11846;DHT22;5982;37.494;-8.758;2023-04-06T20:37:53;14.20;99.90
11846;DHT22;5982;37.494;-8.758;2023-04-06T20:40:21;14.20;99.90
11846;DHT22;5982;37.494;-8.758;2023-04-06T20:42:48;14.20;99.90
11846;DHT22;5982;37.494;-8.758;2023-04-06T20:45:16;14.20;99.90
11846;DHT22;5982;37.494;-8.758;2023-04-06T20:47:44;14.30;99.90
11846;DHT22;5982;37.494;-8.758;2023-04-06T20:50:14;14.20;99.90
11846;DHT22;5982;37.494;-8.758;2023-04-06T20:52:42;14.20;99.90
11846;DHT22;5982;37.494;-8.758;2023-04-06T20:55:09;14.20;99.90
11846;DHT22;5982;37.494;-8.758;2023-04-06T20:57:37;14.20;99.90
11846;DHT22;5982;37.494;-8.758;2023-04-06T21:00:05;14.20;99.90
11846;DHT22;5982;37.494;-8.758;2023-04-06T21:02:34;14.20;99.90
11846;DHT22;5982;37.494;-8.758;2023-04-06T21:05:02;14.20;99.90
11846;DHT22;5982;37.494;-8.758;2023-04-06T21:07:32;14.30;99.90
11846;DHT22;5982;37.494;-8.758;2023-04-06T21:10:00;14.40;99.90
11846;DHT22;5982;37.494;-8.758;2023-04-06T21:12:28;14.40;99.90
11846;DHT22;5982;37.494;-8.758;2023-04-06T21:14:56;14.50;99.90
11846;DHT22;5982;37.494;-8.758;2023-04-06T21:17:24;14.50;99.90
11846;DHT22;5982;37.494;-8.758;2023-04-06T21:19:52;14.50;99.90
11846;DHT22;5982;37.494;-8.758;2023-04-06T21:22:21;14.40;99.90
11846;DHT22;5982;37.494;-8.758;2023-04-06T21:24:50;14.40;99.90
11846;DHT22;5982;37.494;-8.758;2023-04-06T21:27:18;14.30;99.90
11846;DHT22;5982;37.494;-8.758;2023-04-06T21:29:46;14.20;99.90
11846;DHT22;5982;37.494;-8.758;2023-04-06T21:32:14;14.10;99.90
11846;DHT22;5982;37.494;-8.758;2023-04-06T21:34:42;14.10;99.90
11846;DHT22;5982;37.494;-8.758;2023-04-06T21:37:11;13.90;99.90
11846;DHT22;5982;37.494;-8.758;2023-04-06T21:39:39;13.80;99.90
11846;DHT22;5982;37.494;-8.758;2023-04-06T21:42:08;13.90;99.90
11846;DHT22;5982;37.494;-8.758;2023-04-06T21:44:36;13.90;99.90
11846;DHT22;5982;37.494;-8.758;2023-04-06T21:47:03;13.90;99.90
11846;DHT22;5982;37.494;-8.758;2023-04-06T21:49:31;14.00;99.90
11846;DHT22;5982;37.494;-8.758;2023-04-06T21:51:59;14.00;99.90
11846;DHT22;5982;37.494;-8.758;2023-04-06T21:54:30;14.00;99.90
11846;DHT22;5982;37.494;-8.758;2023-04-06T21:56:58;14.00;99.90
11846;DHT22;5982;37.494;-8.758;2023-04-06T21:59:29;14.00;99.90
11846;DHT22;5982;37.494;-8.758;2023-04-06T22:01:56;14.00;99.90
11846;DHT22;5982;37.494;-8.758;2023-04-06T22:04:24;13.90;99.90
11846;DHT22;5982;37.494;-8.758;2023-04-06T22:06:52;14.00;99.90
11846;DHT22;5982;37.494;-8.758;2023-04-06T22:09:20;14.10;99.90
11846;DHT22;5982;37.494;-8.758;2023-04-06T22:11:48;14.20;99.90
11846;DHT22;5982;37.494;-8.758;2023-04-06T22:14:16;14.20;99.90
11846;DHT22;5982;37.494;-8.758;2023-04-06T22:16:45;14.20;99.90
11846;DHT22;5982;37.494;-8.758;2023-04-06T22:19:13;14.20;99.90
11846;DHT22;5982;37.494;-8.758;2023-04-06T22:21:41;14.20;99.90
11846;DHT22;5982;37.494;-8.758;2023-04-06T22:24:10;14.10;99.90
11846;DHT22;5982;37.494;-8.758;2023-04-06T22:26:38;14.20;99.90
11846;DHT22;5982;37.494;-8.758;2023-04-06T22:29:06;14.20;99.90
11846;DHT22;5982;37.494;-8.758;2023-04-06T22:31:34;14.30;99.90
11846;DHT22;5982;37.494;-8.758;2023-04-06T22:34:03;14.40;99.90
11846;DHT22;5982;37.494;-8.758;2023-04-06T22:36:31;14.40;99.90
11846;DHT22;5982;37.494;-8.758;2023-04-06T22:38:59;14.40;99.90
11846;DHT22;5982;37.494;-8.758;2023-04-06T22:41:27;14.40;99.90
11846;DHT22;5982;37.494;-8.758;2023-04-06T22:43:55;14.50;99.90
11846;DHT22;5982;37.494;-8.758;2023-04-06T22:46:23;14.40;99.90
11846;DHT22;5982;37.494;-8.758;2023-04-06T22:48:50;14.00;99.90
11846;DHT22;5982;37.494;-8.758;2023-04-06T22:51:21;13.60;99.90
11846;DHT22;5982;37.494;-8.758;2023-04-06T22:53:48;13.30;99.90
11846;DHT22;5982;37.494;-8.758;2023-04-06T22:56:16;13.30;99.90
11846;DHT22;5982;37.494;-8.758;2023-04-06T22:58:44;13.30;99.90
11846;DHT22;5982;37.494;-8.758;2023-04-06T23:01:12;13.30;99.90
11846;DHT22;5982;37.494;-8.758;2023-04-06T23:03:40;13.40;99.90
11846;DHT22;5982;37.494;-8.758;2023-04-06T23:06:07;13.30;99.90
11846;DHT22;5982;37.494;-8.758;2023-04-06T23:08:37;13.20;99.90
11846;DHT22;5982;37.494;-8.758;2023-04-06T23:11:04;13.20;99.90
11846;DHT22;5982;37.494;-8.758;2023-04-06T23:13:32;13.20;99.90
11846;DHT22;5982;37.494;-8.758;2023-04-06T23:16:00;13.30;99.90
11846;DHT22;5982;37.494;-8.758;2023-04-06T23:18:28;13.30;99.90
11846;DHT22;5982;37.494;-8.758;2023-04-06T23:20:56;13.10;99.90
11846;DHT22;5982;37.494;-8.758;2023-04-06T23:23:23;12.90;99.90
11846;DHT22;5982;37.494;-8.758;2023-04-06T23:25:52;12.70;99.90
11846;DHT22;5982;37.494;-8.758;2023-04-06T23:28:20;12.60;99.90
11846;DHT22;5982;37.494;-8.758;2023-04-06T23:30:48;12.60;99.90
11846;DHT22;5982;37.494;-8.758;2023-04-06T23:33:16;12.40;99.90
11846;DHT22;5982;37.494;-8.758;2023-04-06T23:35:44;12.10;99.90
11846;DHT22;5982;37.494;-8.758;2023-04-06T23:38:11;12.00;99.90
11846;DHT22;5982;37.494;-8.758;2023-04-06T23:40:39;11.90;99.90
11846;DHT22;5982;37.494;-8.758;2023-04-06T23:43:08;11.60;99.90
11846;DHT22;5982;37.494;-8.758;2023-04-06T23:45:38;11.50;99.90
11846;DHT22;5982;37.494;-8.758;2023-04-06T23:48:07;11.50;99.90
11846;DHT22;5982;37.494;-8.758;2023-04-06T23:50:35;11.50;99.90
11846;DHT22;5982;37.494;-8.758;2023-04-06T23:53:03;11.50;99.90
11846;DHT22;5982;37.494;-8.758;2023-04-06T23:55:31;11.40;99.90
11846;DHT22;5982;37.494;-8.758;2023-04-06T23:57:58;11.50;99.90
